Time;durP1;ratioP1;P1;durP2;ratioP2;P2;SDS_P1;SDS_P2;PMS_P1;PMS_P2;Temp;Humidity;BMP_temperature;BMP_pressure;BME280_temperature;BME280_humidity;BME280_pressure;Samples;Min_cycle;Max_cycle;Signal;HPM_P1;HPM_P2
2022/11/14 00:00:24;;;;;;;;;18.50;15.75;;;;;;;;5106991;27;11475;-83
2022/11/14 00:02:52;;;;;;;;;20.25;20.00;;;;;;;;5128590;27;11483;-84
2022/11/14 00:05:22;;;;;;;;;19.00;16.50;;;;;;;;5127705;27;11569;-83
2022/11/14 00:07:50;;;;;;;;;19.00;15.50;;;;;;;;5127522;27;11600;-84
2022/11/14 00:10:18;;;;;;;;;19.50;18.00;;;;;;;;5123951;27;11505;-83
2022/11/14 00:12:45;;;;;;;;;23.25;23.25;;;;;;;;5124988;27;11515;-83
2022/11/14 00:15:14;;;;;;;;;25.00;21.50;;;;;;;;5125569;27;11404;-84
2022/11/14 00:17:41;;;;;;;;;28.00;24.25;;;;;;;;5125224;27;11408;-84
2022/11/14 00:20:11;;;;;;;;;21.00;21.00;;;;;;;;5128765;27;12141;-84
2022/11/14 00:22:40;;;;;;;;;19.25;18.50;;;;;;;;5108770;27;11357;-84
2022/11/14 00:25:09;;;;;;;;;21.50;17.75;;;;;;;;5108958;27;11400;-84
2022/11/14 00:27:37;;;;;;;;;21.00;19.50;;;;;;;;5123687;27;11491;-84
2022/11/14 00:30:05;;;;;;;;;19.50;17.50;;;;;;;;5127436;27;11451;-83
2022/11/14 00:32:32;;;;;;;;;13.50;13.25;;;;;;;;5125464;27;11494;-85
2022/11/14 00:35:00;;;;;;;;;18.25;15.75;;;;;;;;5127595;27;11473;-85
2022/11/14 00:40:14;;;;;;;;;18.75;14.50;;;;;;;;5112237;27;11509;-85
2022/11/14 00:42:43;;;;;;;;;17.75;15.50;;;;;;;;5109279;27;11469;-84
2022/11/14 00:45:11;;;;;;;;;15.75;15.75;;;;;;;;5106996;27;11549;-83
2022/11/14 00:47:39;;;;;;;;;18.75;16.25;;;;;;;;5128511;27;12621;-83
2022/11/14 00:50:08;;;;;;;;;17.50;17.00;;;;;;;;5126741;27;11473;-85
2022/11/14 00:52:35;;;;;;;;;13.75;10.25;;;;;;;;5109494;27;11537;-87
2022/11/14 00:55:04;;;;;;;;;12.75;12.75;;;;;;;;5127846;27;11539;-86
2022/11/14 00:57:33;;;;;;;;;22.25;16.25;;;;;;;;5109185;27;11442;-86
2022/11/14 01:00:01;;;;;;;;;17.75;14.00;;;;;;;;5124118;27;11548;-87
2022/11/14 01:02:28;;;;;;;;;15.00;12.25;;;;;;;;5126849;27;11553;-86
2022/11/14 01:04:57;;;;;;;;;17.25;13.75;;;;;;;;5108846;27;11386;-84
2022/11/14 01:07:26;;;;;;;;;23.25;17.50;;;;;;;;5127396;27;11507;-85
2022/11/14 01:09:53;;;;;;;;;14.00;12.25;;;;;;;;5107696;27;11387;-86
2022/11/14 01:12:21;;;;;;;;;12.00;12.00;;;;;;;;5126391;27;11364;-86
2022/11/14 01:14:50;;;;;;;;;15.25;12.25;;;;;;;;5125986;27;11598;-85
2022/11/14 01:17:18;;;;;;;;;12.75;11.50;;;;;;;;5109878;27;11633;-84
2022/11/14 01:19:45;;;;;;;;;18.00;15.00;;;;;;;;5107422;27;11401;-84
2022/11/14 01:22:14;;;;;;;;;19.50;17.50;;;;;;;;5091367;27;11762;-85
2022/11/14 01:24:41;;;;;;;;;17.00;14.00;;;;;;;;5105817;27;11529;-85
2022/11/14 01:27:09;;;;;;;;;15.25;12.75;;;;;;;;5127144;27;11435;-85
2022/11/14 01:29:36;;;;;;;;;19.50;15.00;;;;;;;;5125554;27;11457;-84
2022/11/14 01:32:06;;;;;;;;;19.00;16.75;;;;;;;;5123605;27;11493;-84
2022/11/14 01:34:35;;;;;;;;;14.50;14.50;;;;;;;;5125633;27;11600;-84
2022/11/14 01:37:02;;;;;;;;;15.75;13.00;;;;;;;;5125517;27;11378;-84
2022/11/14 01:39:30;;;;;;;;;16.00;15.00;;;;;;;;5127962;27;11662;-84
2022/11/14 01:41:58;;;;;;;;;28.00;21.75;;;;;;;;5127383;27;11448;-85
2022/11/14 01:44:48;;;;;;;;;16.25;13.25;;;;;;;;5106112;27;11534;-85
2022/11/14 01:47:20;;;;;;;;;21.25;17.00;;;;;;;;5124538;27;11600;-85
2022/11/14 01:49:50;;;;;;;;;17.00;14.75;;;;;;;;5122118;27;11398;-85
2022/11/14 01:52:20;;;;;;;;;13.25;12.00;;;;;;;;5102674;27;11471;-85
2022/11/14 01:54:51;;;;;;;;;19.75;17.75;;;;;;;;5123322;27;11561;-85
2022/11/14 01:57:25;;;;;;;;;11.50;11.50;;;;;;;;5102453;27;11454;-85
2022/11/14 01:59:55;;;;;;;;;17.25;13.75;;;;;;;;5121009;27;11462;-85
2022/11/14 02:02:26;;;;;;;;;11.75;9.50;;;;;;;;5121933;27;11416;-85
2022/11/14 02:05:00;;;;;;;;;12.25;12.00;;;;;;;;5107763;27;11406;-85
2022/11/14 02:07:29;;;;;;;;;16.50;13.50;;;;;;;;5122756;27;11574;-85
2022/11/14 02:09:56;;;;;;;;;16.00;14.25;;;;;;;;5122758;27;11467;-87
2022/11/14 02:12:24;;;;;;;;;14.00;14.00;;;;;;;;5126389;27;11607;-87
2022/11/14 02:14:55;;;;;;;;;13.50;12.25;;;;;;;;5089505;27;11421;-87
2022/11/14 02:17:24;;;;;;;;;18.25;14.75;;;;;;;;5123634;27;12234;-86
2022/11/14 02:19:56;;;;;;;;;12.50;12.25;;;;;;;;5129407;27;11447;-87
2022/11/14 02:22:25;;;;;;;;;16.50;13.25;;;;;;;;5132536;27;11485;-84
2022/11/14 02:24:53;;;;;;;;;14.00;13.25;;;;;;;;5129477;27;12204;-85
2022/11/14 02:27:20;;;;;;;;;11.75;11.75;;;;;;;;5129692;27;11445;-85
2022/11/14 02:29:48;;;;;;;;;20.00;16.50;;;;;;;;5135437;27;11411;-85
2022/11/14 02:32:15;;;;;;;;;9.00;9.00;;;;;;;;5130014;27;11533;-85
2022/11/14 02:34:43;;;;;;;;;12.25;12.25;;;;;;;;5093318;27;11464;-83
2022/11/14 02:37:12;;;;;;;;;20.25;18.25;;;;;;;;5128391;27;11441;-85
2022/11/14 02:39:41;;;;;;;;;13.25;13.00;;;;;;;;5135442;27;11564;-84
2022/11/14 02:42:08;;;;;;;;;23.75;21.50;;;;;;;;5128849;27;11413;-84
2022/11/14 02:44:36;;;;;;;;;18.25;15.25;;;;;;;;5109463;27;11569;-85
2022/11/14 02:47:03;;;;;;;;;14.25;12.25;;;;;;;;5127300;27;11553;-85
2022/11/14 02:49:31;;;;;;;;;11.50;9.50;;;;;;;;5132359;27;12369;-84
2022/11/14 02:51:58;;;;;;;;;13.00;11.00;;;;;;;;5130006;27;11485;-85
2022/11/14 02:54:26;;;;;;;;;22.00;16.75;;;;;;;;5132702;27;11491;-84
2022/11/14 02:56:55;;;;;;;;;15.00;13.00;;;;;;;;5108643;27;11547;-84
2022/11/14 02:59:23;;;;;;;;;6.00;6.00;;;;;;;;5107732;27;11513;-84
2022/11/14 03:01:51;;;;;;;;;18.50;18.50;;;;;;;;5127169;27;11356;-85
2022/11/14 03:04:18;;;;;;;;;18.25;12.75;;;;;;;;5108260;27;12334;-86
2022/11/14 03:06:47;;;;;;;;;16.50;11.75;;;;;;;;5129666;27;11521;-85
2022/11/14 03:09:19;;;;;;;;;15.50;13.25;;;;;;;;5129229;27;11438;-85
2022/11/14 03:11:46;;;;;;;;;12.50;12.00;;;;;;;;5128304;27;11394;-86
2022/11/14 03:14:16;;;;;;;;;11.00;11.00;;;;;;;;5111035;27;11573;-85
2022/11/14 03:16:43;;;;;;;;;16.75;12.25;;;;;;;;5129303;27;11433;-86
2022/11/14 03:19:11;;;;;;;;;20.75;14.25;;;;;;;;5131178;27;11388;-85
2022/11/14 03:21:38;;;;;;;;;16.25;16.25;;;;;;;;5130269;27;11412;-85
2022/11/14 03:24:06;;;;;;;;;12.75;12.75;;;;;;;;5108704;27;11458;-85
2022/11/14 03:26:34;;;;;;;;;14.00;12.00;;;;;;;;5132987;27;11472;-85
2022/11/14 03:29:01;;;;;;;;;12.50;12.50;;;;;;;;5109105;27;11518;-85
2022/11/14 03:31:31;;;;;;;;;13.00;11.00;;;;;;;;5126022;27;11515;-85
2022/11/14 03:33:58;;;;;;;;;14.50;12.50;;;;;;;;5126997;27;11554;-84
2022/11/14 03:36:26;;;;;;;;;18.75;15.00;;;;;;;;5129246;27;11617;-85
2022/11/14 03:38:53;;;;;;;;;13.00;13.00;;;;;;;;5124938;27;11513;-85
2022/11/14 03:41:21;;;;;;;;;13.00;13.00;;;;;;;;5110365;27;11474;-85
2022/11/14 03:43:48;;;;;;;;;13.00;11.75;;;;;;;;5128258;27;11554;-85
2022/11/14 03:46:18;;;;;;;;;12.25;11.00;;;;;;;;5129320;27;12317;-85
2022/11/14 03:48:47;;;;;;;;;13.00;13.00;;;;;;;;5107495;27;11517;-85
2022/11/14 03:51:14;;;;;;;;;16.75;12.75;;;;;;;;5128058;27;11500;-85
2022/11/14 03:53:42;;;;;;;;;14.50;10.00;;;;;;;;5130358;27;11517;-84
2022/11/14 03:56:09;;;;;;;;;16.75;12.75;;;;;;;;5128363;27;11525;-85
2022/11/14 03:58:37;;;;;;;;;14.50;13.50;;;;;;;;5106531;27;11523;-86
2022/11/14 04:01:04;;;;;;;;;16.50;16.00;;;;;;;;5109790;27;11542;-85
2022/11/14 04:03:32;;;;;;;;;21.00;13.25;;;;;;;;5127732;27;11545;-85
2022/11/14 04:06:02;;;;;;;;;15.75;12.00;;;;;;;;5126746;27;11578;-84
2022/11/14 04:08:29;;;;;;;;;26.00;17.50;;;;;;;;5107120;27;11634;-85
2022/11/14 04:10:57;;;;;;;;;21.25;18.75;;;;;;;;5108861;27;11572;-85
2022/11/14 04:13:24;;;;;;;;;16.25;16.25;;;;;;;;5108755;27;11505;-85
2022/11/14 04:15:55;;;;;;;;;20.50;16.50;;;;;;;;5109944;27;11478;-85
2022/11/14 04:18:23;;;;;;;;;12.25;11.50;;;;;;;;5126717;27;11562;-85
2022/11/14 04:20:51;;;;;;;;;18.25;14.75;;;;;;;;5128759;27;11584;-85
2022/11/14 04:23:20;;;;;;;;;17.25;16.50;;;;;;;;5109440;27;11550;-85
2022/11/14 04:25:52;;;;;;;;;28.50;24.25;;;;;;;;5107775;27;11554;-84
2022/11/14 04:28:19;;;;;;;;;17.75;16.00;;;;;;;;5105577;27;11545;-85
2022/11/14 04:30:47;;;;;;;;;23.00;17.50;;;;;;;;5126966;27;11397;-84
2022/11/14 04:33:17;;;;;;;;;18.00;18.00;;;;;;;;5127218;27;11464;-84
2022/11/14 04:35:44;;;;;;;;;12.50;12.50;;;;;;;;5092979;27;11446;-85
2022/11/14 04:38:12;;;;;;;;;18.00;18.00;;;;;;;;5125983;27;11542;-85
2022/11/14 04:40:41;;;;;;;;;16.25;16.25;;;;;;;;5107788;27;11530;-85
2022/11/14 04:43:09;;;;;;;;;20.75;17.00;;;;;;;;5109487;27;11480;-85
2022/11/14 04:45:36;;;;;;;;;15.00;14.00;;;;;;;;5129104;27;11450;-85
2022/11/14 04:48:04;;;;;;;;;24.75;21.00;;;;;;;;5126367;27;11517;-85
2022/11/14 04:50:32;;;;;;;;;14.25;13.00;;;;;;;;5108126;27;11575;-85
2022/11/14 04:53:00;;;;;;;;;15.50;15.50;;;;;;;;5107559;27;11530;-86
2022/11/14 04:55:27;;;;;;;;;17.00;15.00;;;;;;;;5108846;27;11545;-86
2022/11/14 04:57:58;;;;;;;;;13.75;12.50;;;;;;;;5109161;27;11580;-86
2022/11/14 05:00:26;;;;;;;;;17.50;16.25;;;;;;;;5124665;27;11457;-85
2022/11/14 05:02:53;;;;;;;;;20.25;19.00;;;;;;;;5125608;27;11447;-85
2022/11/14 05:05:21;;;;;;;;;16.00;15.25;;;;;;;;5126125;27;11510;-85
2022/11/14 05:07:48;;;;;;;;;15.25;13.50;;;;;;;;5125147;27;11932;-85
2022/11/14 05:10:16;;;;;;;;;14.25;14.25;;;;;;;;5109441;27;11512;-85
2022/11/14 05:12:44;;;;;;;;;16.25;12.00;;;;;;;;5108772;27;11473;-85
2022/11/14 05:15:13;;;;;;;;;19.25;18.00;;;;;;;;5107680;27;11637;-85
2022/11/14 05:17:41;;;;;;;;;21.50;19.50;;;;;;;;5130534;27;11443;-85
2022/11/14 05:20:09;;;;;;;;;26.25;22.50;;;;;;;;5126202;27;11541;-84
2022/11/14 05:22:37;;;;;;;;;19.00;19.00;;;;;;;;5108621;27;11457;-84
2022/11/14 05:25:06;;;;;;;;;19.00;18.25;;;;;;;;5125595;27;12314;-85
2022/11/14 05:27:34;;;;;;;;;22.50;17.75;;;;;;;;5128315;27;11446;-85
2022/11/14 05:30:01;;;;;;;;;25.50;20.25;;;;;;;;5125708;27;11494;-85
2022/11/14 05:32:31;;;;;;;;;14.00;13.00;;;;;;;;5129766;27;11477;-84
2022/11/14 05:34:59;;;;;;;;;23.00;21.25;;;;;;;;5126402;27;11685;-85
2022/11/14 05:37:26;;;;;;;;;21.75;19.00;;;;;;;;5128223;27;11472;-85
2022/11/14 05:39:54;;;;;;;;;17.00;17.00;;;;;;;;5130094;27;11510;-84
2022/11/14 05:42:21;;;;;;;;;19.00;17.00;;;;;;;;5130492;27;11484;-86
2022/11/14 05:44:49;;;;;;;;;16.00;16.00;;;;;;;;5109703;27;11586;-85
2022/11/14 05:47:17;;;;;;;;;23.00;19.75;;;;;;;;5108519;27;11569;-86
2022/11/14 05:49:47;;;;;;;;;17.00;16.00;;;;;;;;5128762;27;11524;-85
2022/11/14 05:52:15;;;;;;;;;22.25;22.25;;;;;;;;5128054;27;11497;-86
2022/11/14 05:54:43;;;;;;;;;17.75;17.75;;;;;;;;5129512;27;11614;-86
2022/11/14 05:57:10;;;;;;;;;66.50;53.75;;;;;;;;5132755;27;12344;-85
2022/11/14 05:59:38;;;;;;;;;52.25;44.50;;;;;;;;5110091;27;11693;-85
2022/11/14 06:02:05;;;;;;;;;28.00;22.50;;;;;;;;5112984;27;11596;-85
2022/11/14 06:04:33;;;;;;;;;12.75;12.25;;;;;;;;5112196;27;11582;-86
2022/11/14 06:07:03;;;;;;;;;18.25;14.75;;;;;;;;5111904;27;11565;-85
2022/11/14 06:09:30;;;;;;;;;12.25;12.25;;;;;;;;5110840;27;11552;-86
2022/11/14 06:11:58;;;;;;;;;19.75;19.00;;;;;;;;5125784;27;11382;-85
2022/11/14 06:14:25;;;;;;;;;30.75;28.75;;;;;;;;5111294;27;11488;-87
2022/11/14 06:16:53;;;;;;;;;12.25;12.25;;;;;;;;5131228;27;11499;-86
2022/11/14 06:19:21;;;;;;;;;26.25;23.00;;;;;;;;5130259;27;11477;-86
2022/11/14 06:21:48;;;;;;;;;22.75;21.75;;;;;;;;5130634;27;11487;-86
2022/11/14 06:24:18;;;;;;;;;12.75;12.50;;;;;;;;5112493;27;11539;-85
2022/11/14 06:26:45;;;;;;;;;18.50;17.25;;;;;;;;5112753;27;11531;-85
2022/11/14 06:29:13;;;;;;;;;21.25;20.25;;;;;;;;5128252;27;11751;-85
2022/11/14 06:31:41;;;;;;;;;29.25;23.50;;;;;;;;5110284;27;11565;-85
2022/11/14 06:34:11;;;;;;;;;24.00;22.25;;;;;;;;5129583;27;11460;-85
2022/11/14 06:36:39;;;;;;;;;26.75;23.50;;;;;;;;5131167;27;11558;-85
2022/11/14 06:39:06;;;;;;;;;22.50;18.00;;;;;;;;5128620;27;11544;-86
2022/11/14 06:41:36;;;;;;;;;26.75;26.00;;;;;;;;5126876;27;11372;-87
2022/11/14 06:44:04;;;;;;;;;30.00;26.00;;;;;;;;5110829;27;11640;-84
2022/11/14 06:46:34;;;;;;;;;28.75;23.25;;;;;;;;5094125;27;11444;-84
2022/11/14 06:49:02;;;;;;;;;21.00;18.50;;;;;;;;5128838;27;11477;-84
2022/11/14 06:51:32;;;;;;;;;25.00;23.25;;;;;;;;5126432;27;11548;-84
2022/11/14 06:53:59;;;;;;;;;25.00;21.25;;;;;;;;5129013;27;11539;-84
2022/11/14 06:56:28;;;;;;;;;18.25;18.25;;;;;;;;5110746;27;11507;-85
2022/11/14 06:58:57;;;;;;;;;31.50;30.75;;;;;;;;5130216;27;11432;-85
2022/11/14 07:01:26;;;;;;;;;28.00;26.75;;;;;;;;5128397;27;11560;-84
2022/11/14 07:03:53;;;;;;;;;19.75;19.75;;;;;;;;5109939;27;11596;-85
2022/11/14 07:06:22;;;;;;;;;22.25;22.25;;;;;;;;5125865;27;11491;-85
2022/11/14 07:08:51;;;;;;;;;23.50;23.50;;;;;;;;5129753;27;11483;-84
2022/11/14 07:11:22;;;;;;;;;26.00;22.75;;;;;;;;5128597;27;11564;-84
2022/11/14 07:13:50;;;;;;;;;25.75;22.50;;;;;;;;5128325;27;12433;-84
2022/11/14 07:16:21;;;;;;;;;17.75;17.75;;;;;;;;5124210;27;11566;-85
2022/11/14 07:18:49;;;;;;;;;19.75;19.75;;;;;;;;5109395;27;11456;-85
2022/11/14 07:21:16;;;;;;;;;20.25;19.00;;;;;;;;5109844;27;11562;-85
2022/11/14 07:23:47;;;;;;;;;28.25;24.00;;;;;;;;5127629;27;11508;-85
2022/11/14 07:26:14;;;;;;;;;23.00;22.00;;;;;;;;5130904;27;11560;-85
2022/11/14 07:28:46;;;;;;;;;23.50;21.00;;;;;;;;5109503;27;11658;-86
2022/11/14 07:31:18;;;;;;;;;22.25;21.25;;;;;;;;5105946;27;11511;-86
2022/11/14 07:33:48;;;;;;;;;18.75;16.50;;;;;;;;5127003;27;11519;-87
2022/11/14 07:36:21;;;;;;;;;22.00;19.50;;;;;;;;5125454;27;11564;-84
2022/11/14 07:38:49;;;;;;;;;29.75;26.75;;;;;;;;5125882;27;11452;-83
2022/11/14 07:41:19;;;;;;;;;28.00;24.00;;;;;;;;5126448;27;11486;-85
2022/11/14 07:43:47;;;;;;;;;21.25;21.25;;;;;;;;5124488;27;11509;-85
2022/11/14 07:46:18;;;;;;;;;25.50;23.50;;;;;;;;5108942;27;11667;-84
2022/11/14 07:48:47;;;;;;;;;20.25;18.75;;;;;;;;5127861;27;11506;-85
2022/11/14 07:51:16;;;;;;;;;34.00;32.25;;;;;;;;5122385;27;12437;-84
2022/11/14 07:53:44;;;;;;;;;41.00;33.75;;;;;;;;5124238;27;11621;-85
2022/11/14 07:56:12;;;;;;;;;47.25;37.00;;;;;;;;5125558;27;11703;-85
2022/11/14 07:58:42;;;;;;;;;30.75;29.75;;;;;;;;5125748;27;11481;-83
2022/11/14 08:01:12;;;;;;;;;37.75;34.25;;;;;;;;5124393;27;11549;-87
2022/11/14 08:03:40;;;;;;;;;34.75;34.25;;;;;;;;5128135;27;12243;-86
2022/11/14 08:06:11;;;;;;;;;25.25;23.00;;;;;;;;5123661;27;11537;-84
2022/11/14 08:08:40;;;;;;;;;33.00;28.50;;;;;;;;5129253;27;11480;-85
2022/11/14 08:11:07;;;;;;;;;41.50;39.25;;;;;;;;5126353;27;11441;-84
2022/11/14 08:13:35;;;;;;;;;26.50;24.25;;;;;;;;5108831;27;11437;-84
2022/11/14 08:16:05;;;;;;;;;19.75;19.75;;;;;;;;5107805;27;11592;-82
2022/11/14 08:18:33;;;;;;;;;28.75;23.25;;;;;;;;5124974;27;11481;-72
2022/11/14 08:21:03;;;;;;;;;19.25;18.75;;;;;;;;5125234;27;11605;-71
2022/11/14 08:23:32;;;;;;;;;24.50;20.50;;;;;;;;5122091;27;11501;-72
2022/11/14 08:26:00;;;;;;;;;17.75;17.75;;;;;;;;5130107;27;11436;-75
2022/11/14 08:28:27;;;;;;;;;24.00;20.00;;;;;;;;5124780;27;11482;-76
2022/11/14 08:31:00;;;;;;;;;23.25;21.00;;;;;;;;5124227;27;11560;-74
2022/11/14 08:33:28;;;;;;;;;23.50;23.00;;;;;;;;5124145;27;11655;-72
2022/11/14 08:35:55;;;;;;;;;24.75;24.75;;;;;;;;5124314;27;11467;-75
2022/11/14 08:38:23;;;;;;;;;18.75;17.50;;;;;;;;5125931;27;11492;-75
2022/11/14 08:40:52;;;;;;;;;20.00;20.00;;;;;;;;5105942;27;12370;-78
2022/11/14 08:43:20;;;;;;;;;19.25;14.50;;;;;;;;5123243;27;11553;-74
2022/11/14 08:45:48;;;;;;;;;21.75;17.75;;;;;;;;5125810;27;11449;-74
2022/11/14 08:48:15;;;;;;;;;20.25;16.25;;;;;;;;5120133;27;11517;-74
2022/11/14 08:50:43;;;;;;;;;21.50;18.75;;;;;;;;5105284;27;11647;-74
2022/11/14 08:53:11;;;;;;;;;8.50;8.50;;;;;;;;5123556;27;11542;-73
2022/11/14 08:55:39;;;;;;;;;11.75;11.75;;;;;;;;5126279;27;11602;-74
2022/11/14 08:58:08;;;;;;;;;18.25;17.00;;;;;;;;5125018;27;11662;-73
2022/11/14 09:00:36;;;;;;;;;15.75;15.75;;;;;;;;5117918;27;11503;-72
2022/11/14 09:03:08;;;;;;;;;17.00;16.00;;;;;;;;5124699;27;11538;-73
2022/11/14 09:05:36;;;;;;;;;12.25;12.25;;;;;;;;5123373;27;11544;-74
2022/11/14 09:08:03;;;;;;;;;18.00;16.00;;;;;;;;5125367;27;12307;-75
2022/11/14 09:10:31;;;;;;;;;9.50;9.50;;;;;;;;5126580;27;11487;-73
2022/11/14 09:12:59;;;;;;;;;18.25;15.25;;;;;;;;5105263;27;11388;-74
2022/11/14 09:15:30;;;;;;;;;17.00;17.00;;;;;;;;5121860;27;11490;-75
2022/11/14 09:17:58;;;;;;;;;12.25;12.25;;;;;;;;5105694;27;11563;-74
2022/11/14 09:20:29;;;;;;;;;22.25;18.00;;;;;;;;5105174;27;11405;-72
2022/11/14 09:23:01;;;;;;;;;15.75;13.50;;;;;;;;5123696;27;11643;-78
2022/11/14 09:25:29;;;;;;;;;19.00;14.25;;;;;;;;5104158;27;11433;-73
2022/11/14 09:27:58;;;;;;;;;16.25;16.25;;;;;;;;5124057;27;11556;-75
2022/11/14 09:30:25;;;;;;;;;13.75;13.00;;;;;;;;5121918;27;11518;-73
2022/11/14 09:32:59;;;;;;;;;19.50;17.00;;;;;;;;5123022;27;11477;-76
2022/11/14 09:35:27;;;;;;;;;15.00;15.00;;;;;;;;5120762;27;11510;-76
2022/11/14 09:38:01;;;;;;;;;19.00;17.25;;;;;;;;5104536;27;11553;-76
2022/11/14 09:40:28;;;;;;;;;18.75;12.25;;;;;;;;5103571;27;12212;-74
2022/11/14 09:43:07;;;;;;;;;13.75;13.75;;;;;;;;5122107;27;12350;-73
2022/11/14 09:45:39;;;;;;;;;12.00;11.00;;;;;;;;5123616;27;11512;-74
2022/11/14 09:48:14;;;;;;;;;14.00;12.50;;;;;;;;5122419;27;11438;-74
2022/11/14 09:50:46;;;;;;;;;17.00;12.50;;;;;;;;5123243;27;11359;-74
2022/11/14 09:53:23;;;;;;;;;8.75;8.75;;;;;;;;5103501;27;12369;-73
2022/11/14 09:55:51;;;;;;;;;12.25;12.25;;;;;;;;5119570;27;11344;-73
2022/11/14 09:58:22;;;;;;;;;14.25;14.25;;;;;;;;5123368;27;11454;-73
2022/11/14 10:00:55;;;;;;;;;12.00;11.50;;;;;;;;5122635;27;11420;-74
2022/11/14 10:03:29;;;;;;;;;13.00;11.25;;;;;;;;5124321;27;11446;-73
2022/11/14 10:06:22;;;;;;;;;5.75;5.75;;;;;;;;5104606;27;11401;-74
2022/11/14 10:09:03;;;;;;;;;14.25;11.75;;;;;;;;5118683;27;12162;-73
2022/11/14 10:11:35;;;;;;;;;12.75;12.75;;;;;;;;5104821;27;11520;-74
2022/11/14 10:14:38;;;;;;;;;17.75;17.00;;;;;;;;5101649;27;11452;-73
2022/11/14 10:17:20;;;;;;;;;12.75;12.75;;;;;;;;5114820;27;11426;-74
2022/11/14 10:19:57;;;;;;;;;10.00;10.00;;;;;;;;5104193;27;11466;-73
2022/11/14 10:22:39;;;;;;;;;15.25;13.00;;;;;;;;5122522;27;11374;-74
2022/11/14 10:25:21;;;;;;;;;16.75;12.25;;;;;;;;5121226;27;12384;-74
2022/11/14 10:28:01;;;;;;;;;9.25;9.00;;;;;;;;5123812;27;11389;-74
2022/11/14 10:30:36;;;;;;;;;14.25;13.50;;;;;;;;5121743;27;12208;-75
2022/11/14 10:33:15;;;;;;;;;9.50;9.50;;;;;;;;5123749;27;11398;-78
2022/11/14 10:35:49;;;;;;;;;17.25;12.75;;;;;;;;5102020;27;12257;-79
2022/11/14 10:38:21;;;;;;;;;7.00;6.00;;;;;;;;5126150;27;11357;-78
2022/11/14 10:40:53;;;;;;;;;10.25;10.25;;;;;;;;5126672;27;11410;-79
2022/11/14 10:43:25;;;;;;;;;12.25;12.25;;;;;;;;5131007;27;11457;-79
2022/11/14 10:46:00;;;;;;;;;14.25;13.25;;;;;;;;5128119;27;11425;-79
2022/11/14 10:48:32;;;;;;;;;14.75;13.25;;;;;;;;5130304;27;11483;-80
2022/11/14 10:51:04;;;;;;;;;20.00;18.25;;;;;;;;5128047;27;11472;-79
2022/11/14 10:53:45;;;;;;;;;17.75;14.00;;;;;;;;5122288;27;11615;-76
2022/11/14 10:56:13;;;;;;;;;16.75;15.25;;;;;;;;5124045;27;11543;-75
2022/11/14 10:58:41;;;;;;;;;19.00;17.00;;;;;;;;5107758;27;11419;-75
2022/11/14 11:01:39;;;;;;;;;13.25;13.25;;;;;;;;5124851;27;11423;-74
2022/11/14 11:04:20;;;;;;;;;14.50;12.75;;;;;;;;5059463;28;12337;-76
2022/11/14 11:06:51;;;;;;;;;15.25;13.50;;;;;;;;5116930;27;11580;-74
2022/11/14 11:12:08;;;;;;;;;24.25;23.00;;;;;;;;5122105;27;11440;-76
2022/11/14 11:14:36;;;;;;;;;19.25;17.75;;;;;;;;5125982;27;12329;-76
2022/11/14 11:17:22;;;;;;;;;18.00;16.25;;;;;;;;5124832;27;11508;-76
2022/11/14 11:19:50;;;;;;;;;17.00;14.50;;;;;;;;5122717;27;11378;-76
2022/11/14 11:22:29;;;;;;;;;13.25;12.75;;;;;;;;5090933;27;11379;-77
2022/11/14 11:24:57;;;;;;;;;11.00;11.00;;;;;;;;5123973;27;12247;-78
2022/11/14 11:27:26;;;;;;;;;14.00;14.00;;;;;;;;5124618;27;11398;-80
2022/11/14 11:30:12;;;;;;;;;16.00;13.50;;;;;;;;5126357;27;11384;-77
2022/11/14 11:32:40;;;;;;;;;14.75;13.50;;;;;;;;5120847;27;11381;-76
2022/11/14 11:35:15;;;;;;;;;20.00;19.00;;;;;;;;5126024;27;11418;-79
2022/11/14 11:37:47;;;;;;;;;18.75;16.50;;;;;;;;5111259;27;11411;-78
2022/11/14 11:40:20;;;;;;;;;15.25;13.75;;;;;;;;5112226;27;11489;-78
2022/11/14 11:42:51;;;;;;;;;16.50;16.50;;;;;;;;5115026;27;11597;-78
2022/11/14 11:45:20;;;;;;;;;20.00;20.00;;;;;;;;5128253;27;11502;-76
2022/11/14 11:47:53;;;;;;;;;15.25;14.50;;;;;;;;5123185;27;12210;-77
2022/11/14 11:50:23;;;;;;;;;23.00;21.00;;;;;;;;5127231;27;11521;-79
2022/11/14 11:52:58;;;;;;;;;18.25;14.50;;;;;;;;5127608;27;11617;-76
2022/11/14 11:55:30;;;;;;;;;14.50;14.00;;;;;;;;5120174;27;11459;-77
2022/11/14 11:58:03;;;;;;;;;19.00;16.50;;;;;;;;5129970;27;11191;-76
2022/11/14 12:00:32;;;;;;;;;16.00;16.00;;;;;;;;5127378;27;11334;-76
2022/11/14 12:03:00;;;;;;;;;17.25;16.00;;;;;;;;5109214;27;11255;-76
2022/11/14 12:05:37;;;;;;;;;18.75;15.75;;;;;;;;5125517;27;11188;-78
2022/11/14 12:08:10;;;;;;;;;21.25;20.50;;;;;;;;5122890;27;11955;-78
2022/11/14 12:10:39;;;;;;;;;20.50;18.25;;;;;;;;5126221;27;11210;-75
2022/11/14 12:13:48;;;;;;;;;18.50;18.50;;;;;;;;5121506;27;11192;-76
2022/11/14 12:16:41;;;;;;;;;18.00;18.00;;;;;;;;5086818;27;11021;-75
2022/11/14 12:19:35;;;;;;;;;19.50;17.50;;;;;;;;5089796;27;11785;-74
2022/11/14 12:22:24;;;;;;;;;16.50;16.50;;;;;;;;5126024;27;11151;-73
2022/11/14 12:25:18;;;;;;;;;50.50;39.25;;;;;;;;5119615;27;11040;-74
2022/11/14 12:27:58;;;;;;;;;14.00;13.00;;;;;;;;5122781;27;11526;-74
2022/11/14 12:30:26;;;;;;;;;14.75;14.50;;;;;;;;5104204;27;11109;-74
2022/11/14 12:32:56;;;;;;;;;15.00;15.00;;;;;;;;5106154;27;11112;-77
2022/11/14 12:35:27;;;;;;;;;20.00;18.75;;;;;;;;5124525;27;10860;-74
2022/11/14 12:37:57;;;;;;;;;19.75;18.00;;;;;;;;5103990;27;10803;-76
2022/11/14 12:40:32;;;;;;;;;20.25;18.50;;;;;;;;5118599;27;10907;-75
2022/11/14 12:43:01;;;;;;;;;22.25;20.25;;;;;;;;5118341;27;10807;-74
2022/11/14 12:45:59;;;;;;;;;21.75;16.50;;;;;;;;5115204;27;10861;-74
2022/11/14 12:48:37;;;;;;;;;22.25;18.75;;;;;;;;5101773;27;10828;-75
2022/11/14 12:51:15;;;;;;;;;21.50;17.50;;;;;;;;5122274;27;10929;-74
2022/11/14 12:53:45;;;;;;;;;20.50;19.50;;;;;;;;5119676;27;10520;-75
2022/11/14 12:56:36;;;;;;;;;13.50;11.00;;;;;;;;5102221;27;10817;-75
2022/11/14 12:59:28;;;;;;;;;16.50;16.50;;;;;;;;5121757;27;11528;-75
2022/11/14 13:02:26;;;;;;;;;23.00;22.00;;;;;;;;5118882;27;10760;-74
2022/11/14 13:05:37;;;;;;;;;24.00;23.25;;;;;;;;5097853;27;10921;-74
2022/11/14 13:08:18;;;;;;;;;25.00;20.00;;;;;;;;5122343;27;11647;-73
2022/11/14 13:10:46;;;;;;;;;24.75;24.75;;;;;;;;5121118;27;10869;-74
2022/11/14 13:22:19;;;;;;;;;28.50;26.75;;;;;;;;5120098;27;10874;-74
2022/11/14 13:25:23;;;;;;;;;25.75;24.00;;;;;;;;5121196;27;10778;-74
2022/11/14 13:27:54;;;;;;;;;25.50;25.50;;;;;;;;5104270;27;10658;-75
2022/11/14 13:31:06;;;;;;;;;28.00;25.50;;;;;;;;5119593;27;10944;-74
2022/11/14 13:33:44;;;;;;;;;26.00;23.75;;;;;;;;5120687;27;11544;-73
2022/11/14 13:36:20;;;;;;;;;18.75;17.00;;;;;;;;5121272;27;11578;-74
2022/11/14 13:39:19;;;;;;;;;30.75;25.00;;;;;;;;5117278;27;10723;-75
2022/11/14 13:42:12;;;;;;;;;30.00;29.00;;;;;;;;5122059;27;10873;-74
2022/11/14 13:45:04;;;;;;;;;30.25;28.75;;;;;;;;5111208;27;10888;-75
2022/11/14 13:48:07;;;;;;;;;25.00;23.25;;;;;;;;5119291;27;11062;-74
2022/11/14 13:50:39;;;;;;;;;36.00;32.00;;;;;;;;5116322;27;10939;-75
2022/11/14 13:53:14;;;;;;;;;32.50;31.00;;;;;;;;5096500;27;11723;-75
2022/11/14 13:55:57;;;;;;;;;32.25;30.00;;;;;;;;5117093;27;10981;-74
2022/11/14 13:58:50;;;;;;;;;32.75;32.75;;;;;;;;5115032;27;10890;-74
2022/11/14 14:01:32;;;;;;;;;26.50;25.75;;;;;;;;5115767;27;11071;-74
2022/11/14 14:04:22;;;;;;;;;27.00;27.00;;;;;;;;5117601;27;10876;-75
2022/11/14 14:06:58;;;;;;;;;38.75;32.75;;;;;;;;5121747;27;11005;-74
2022/11/14 14:09:32;;;;;;;;;26.75;26.75;;;;;;;;5099842;27;11148;-74
2022/11/14 14:12:17;;;;;;;;;30.50;27.50;;;;;;;;5103371;27;10759;-73
2022/11/14 14:15:01;;;;;;;;;35.50;33.75;;;;;;;;5122869;27;11036;-73
2022/11/14 14:17:37;;;;;;;;;23.75;23.75;;;;;;;;5121450;27;10790;-75
2022/11/14 14:20:26;;;;;;;;;33.00;29.75;;;;;;;;5125164;27;10511;-73
2022/11/14 14:23:02;;;;;;;;;31.50;31.50;;;;;;;;5108100;27;10614;-75
2022/11/14 14:25:34;;;;;;;;;33.75;31.75;;;;;;;;5103013;27;10696;-75
2022/11/14 14:28:10;;;;;;;;;33.75;32.75;;;;;;;;5125443;27;10509;-74
2022/11/14 14:30:37;;;;;;;;;32.25;32.25;;;;;;;;5120576;27;10700;-74
2022/11/14 14:33:12;;;;;;;;;30.75;29.00;;;;;;;;5124565;27;10589;-74
2022/11/14 14:35:40;;;;;;;;;26.75;26.75;;;;;;;;5103023;27;10329;-74
2022/11/14 14:38:13;;;;;;;;;24.00;24.00;;;;;;;;5119897;27;10291;-74
2022/11/14 14:40:43;;;;;;;;;25.50;25.50;;;;;;;;5122502;27;10205;-73
2022/11/14 14:43:23;;;;;;;;;31.25;27.75;;;;;;;;5121765;27;10026;-74
2022/11/14 14:45:53;;;;;;;;;38.75;34.00;;;;;;;;5123551;27;9988;-75
2022/11/14 14:48:25;;;;;;;;;35.00;30.50;;;;;;;;5123156;27;10244;-74
2022/11/14 14:50:54;;;;;;;;;43.75;39.50;;;;;;;;5121173;27;10920;-74
2022/11/14 14:53:24;;;;;;;;;42.50;37.00;;;;;;;;5125556;27;10380;-74
2022/11/14 14:55:54;;;;;;;;;40.50;36.00;;;;;;;;5123044;27;10402;-75
2022/11/14 14:58:28;;;;;;;;;32.75;30.50;;;;;;;;5103448;27;10338;-74